Time;durP1;ratioP1;P1;durP2;ratioP2;P2;SDS_P1;SDS_P2;PMS_P1;PMS_P2;Temp;Humidity;BMP_temperature;BMP_pressure;BME280_temperature;BME280_humidity;BME280_pressure;Samples;Min_cycle;Max_cycle;Signal;HPM_P1;HPM_P2
2023/06/30 00:00:53;;;;;;;13.95;5.20;;;;;;;27.12;48.20;100765.41;4984811;28;99028;-73
2023/06/30 00:03:20;;;;;;;9.98;5.30;;;;;;;27.02;48.23;100772.81;4990567;28;96749;-70
2023/06/30 00:05:48;;;;;;;14.32;5.95;;;;;;;27.12;48.45;100770.81;4984440;28;97047;-73
2023/06/30 00:08:15;;;;;;;7.95;5.75;;;;;;;27.13;48.60;100769.81;4985345;28;99594;-72
2023/06/30 00:10:41;;;;;;;11.52;7.00;;;;;;;27.20;48.64;100770.03;4992268;28;97723;-72
2023/06/30 00:13:08;;;;;;;10.85;7.80;;;;;;;27.30;48.34;100768.06;4989548;28;96824;-75
2023/06/30 00:15:34;;;;;;;12.82;7.95;;;;;;;27.20;48.56;100762.75;4985793;28;98037;-74
2023/06/30 00:18:01;;;;;;;13.27;8.70;;;;;;;27.25;48.50;100768.53;4992480;28;99148;-72
2023/06/30 00:20:27;;;;;;;16.23;10.18;;;;;;;26.90;49.55;100771.38;4987509;28;98765;-73
2023/06/30 00:22:55;;;;;;;18.55;9.82;;;;;;;26.96;49.46;100770.75;4999383;28;96795;-73
2023/06/30 00:25:21;;;;;;;15.93;9.65;;;;;;;27.25;48.63;100771.25;4991852;28;97335;-72
2023/06/30 00:27:47;;;;;;;16.70;11.05;;;;;;;27.01;49.42;100770.25;4991251;28;101626;-73
2023/06/30 00:30:14;;;;;;;16.00;11.02;;;;;;;26.92;49.76;100774.75;4995991;28;99106;-72
2023/06/30 00:32:40;;;;;;;19.35;12.27;;;;;;;26.79;50.54;100777.00;4995704;28;96842;-73
2023/06/30 00:35:07;;;;;;;17.90;11.75;;;;;;;26.95;50.66;100779.88;4991723;28;97230;-73
2023/06/30 00:37:33;;;;;;;19.00;12.65;;;;;;;26.94;50.96;100778.16;4992670;28;99142;-73
2023/06/30 00:40:01;;;;;;;20.23;12.80;;;;;;;26.63;52.84;100775.03;4990939;28;101219;-71
2023/06/30 00:42:27;;;;;;;24.25;13.98;;;;;;;26.63;53.32;100774.19;4992038;28;96801;-72
2023/06/30 00:44:54;;;;;;;22.35;13.73;;;;;;;26.57;54.09;100765.69;4990938;28;97009;-71
2023/06/30 00:47:20;;;;;;;19.98;13.10;;;;;;;26.47;54.91;100769.47;4991403;28;100565;-72
2023/06/30 00:49:47;;;;;;;21.88;13.45;;;;;;;26.48;55.40;100769.31;4992802;28;98750;-72
2023/06/30 00:52:13;;;;;;;19.52;13.05;;;;;;;26.45;55.94;100766.09;4993681;28;97825;-72
2023/06/30 00:54:40;;;;;;;20.50;12.63;;;;;;;26.66;55.87;100757.59;4989490;28;98717;-72
2023/06/30 00:57:07;;;;;;;20.02;12.90;;;;;;;26.69;56.20;100754.56;4989854;28;98043;-72
2023/06/30 00:59:34;;;;;;;22.13;13.77;;;;;;;26.79;56.33;100760.72;4997290;28;99076;-72
2023/06/30 01:02:06;;;;;;;19.27;13.15;;;;;;;26.89;56.11;100753.41;4988853;28;96903;-73
2023/06/30 01:04:41;;;;;;;18.55;12.35;;;;;;;26.66;56.66;100763.00;4990911;28;97097;-73
2023/06/30 01:07:18;;;;;;;25.30;13.25;;;;;;;26.52;57.60;100767.97;4991056;28;98841;-73
2023/06/30 01:09:53;;;;;;;21.63;13.02;;;;;;;26.56;56.70;100766.69;4989708;28;99632;-72
2023/06/30 01:12:21;;;;;;;23.80;13.35;;;;;;;26.51;56.84;100763.59;4988327;28;96811;-72
2023/06/30 01:14:49;;;;;;;22.13;13.13;;;;;;;26.53;56.39;100764.28;4985647;28;96944;-73
2023/06/30 01:17:18;;;;;;;24.30;14.27;;;;;;;26.30;56.42;100768.47;4990163;28;100175;-74
2023/06/30 01:19:45;;;;;;;19.60;14.10;;;;;;;26.29;56.45;100753.22;4989801;28;99860;-72
2023/06/30 01:22:19;;;;;;;20.02;13.68;;;;;;;26.25;56.49;100753.69;4989938;28;96943;-71
2023/06/30 01:24:48;;;;;;;21.10;14.35;;;;;;;26.28;56.64;100753.38;4985835;28;96897;-71
2023/06/30 01:27:15;;;;;;;18.52;13.15;;;;;;;26.06;57.70;100746.53;4989665;28;98907;-72
2023/06/30 01:29:43;;;;;;;22.75;15.05;;;;;;;25.92;57.59;100744.38;4993347;28;99075;-72
2023/06/30 01:32:17;;;;;;;22.10;14.70;;;;;;;25.82;58.53;100744.41;4993048;28;96740;-72
2023/06/30 01:34:43;;;;;;;21.98;14.45;;;;;;;25.79;58.94;100750.16;4984207;28;96769;-73
2023/06/30 01:37:10;;;;;;;23.38;14.32;;;;;;;25.74;59.11;100741.63;4989543;28;99153;-71
2023/06/30 01:39:36;;;;;;;23.15;14.85;;;;;;;25.65;58.96;100745.25;4989440;28;98909;-72
2023/06/30 01:42:03;;;;;;;21.05;14.10;;;;;;;25.60;59.69;100748.38;4995347;28;96903;-71
2023/06/30 01:44:30;;;;;;;23.42;15.02;;;;;;;25.47;59.94;100737.03;4988599;28;96904;-71
2023/06/30 01:46:57;;;;;;;25.58;14.80;;;;;;;25.61;59.60;100744.69;5001801;28;98966;-71
2023/06/30 01:49:24;;;;;;;19.52;14.50;;;;;;;25.30;61.30;100748.66;4988936;28;99171;-72
2023/06/30 01:51:50;;;;;;;25.15;14.75;;;;;;;25.54;60.41;100740.84;4991444;28;97017;-73
2023/06/30 01:54:17;;;;;;;21.80;15.68;;;;;;;25.49;61.14;100745.88;4988818;28;97023;-73
2023/06/30 01:56:48;;;;;;;22.00;14.63;;;;;;;25.36;61.38;100740.81;4989576;28;101458;-72
2023/06/30 01:59:14;;;;;;;23.27;14.70;;;;;;;25.68;60.82;100734.97;4993144;28;99068;-72
2023/06/30 02:01:40;;;;;;;25.77;15.13;;;;;;;25.71;60.58;100731.97;4992348;28;96846;-71
2023/06/30 02:04:09;;;;;;;25.27;15.57;;;;;;;25.80;60.11;100730.19;4993126;28;98611;-71
2023/06/30 02:06:35;;;;;;;24.23;16.00;;;;;;;25.64;60.92;100733.56;4991373;28;99113;-71
2023/06/30 02:09:02;;;;;;;26.65;15.90;;;;;;;25.26;62.39;100739.16;4989817;28;98790;-72
2023/06/30 02:11:28;;;;;;;24.15;15.95;;;;;;;24.96;63.83;100742.94;4986579;28;96714;-71
2023/06/30 02:13:55;;;;;;;26.63;16.90;;;;;;;24.88;64.43;100738.22;4989300;28;96874;-72
2023/06/30 02:16:21;;;;;;;25.77;15.63;;;;;;;24.90;64.52;100735.44;4986258;28;100015;-72
2023/06/30 02:18:47;;;;;;;24.92;17.13;;;;;;;24.86;64.49;100742.94;4989908;28;99012;-73
2023/06/30 02:21:15;;;;;;;28.23;16.52;;;;;;;24.80;64.91;100740.84;4989100;28;96777;-73
2023/06/30 02:23:41;;;;;;;22.88;15.65;;;;;;;25.12;63.87;100747.75;4985965;28;98604;-72
2023/06/30 02:26:07;;;;;;;25.52;16.38;;;;;;;24.84;64.46;100739.53;4990076;28;99165;-71
2023/06/30 02:28:34;;;;;;;25.25;15.80;;;;;;;25.11;63.31;100740.63;4992259;28;98102;-70
2023/06/30 02:31:00;;;;;;;26.35;15.65;;;;;;;25.12;63.23;100739.63;4990643;28;98579;-71
2023/06/30 02:33:26;;;;;;;28.02;16.23;;;;;;;24.96;64.18;100734.84;4994507;28;98158;-72
2023/06/30 02:35:53;;;;;;;24.50;17.20;;;;;;;25.06;64.10;100738.38;4990663;28;99117;-70
2023/06/30 02:38:20;;;;;;;24.58;15.18;;;;;;;25.16;63.53;100735.63;4991809;28;98955;-72
2023/06/30 02:40:47;;;;;;;23.30;15.82;;;;;;;25.25;63.22;100740.16;4986320;28;97962;-73
2023/06/30 02:43:13;;;;;;;26.10;15.70;;;;;;;25.51;61.78;100729.50;4993609;28;96903;-72
2023/06/30 02:45:39;;;;;;;27.75;16.50;;;;;;;25.66;61.50;100726.16;4986426;28;99169;-66
2023/06/30 02:48:06;;;;;;;27.80;17.40;;;;;;;25.68;60.85;100709.75;4999512;28;98812;-66
2023/06/30 02:50:32;;;;;;;25.63;16.15;;;;;;;25.60;61.55;100709.69;4988913;28;96862;-65
2023/06/30 02:52:59;;;;;;;26.15;17.13;;;;;;;25.44;62.42;100710.31;4988062;28;97019;-65
2023/06/30 02:55:27;;;;;;;22.52;15.98;;;;;;;25.16;63.60;100706.72;4989966;28;99062;-65
2023/06/30 02:57:54;;;;;;;27.05;16.98;;;;;;;25.01;64.36;100710.91;4987323;28;100742;-65
2023/06/30 03:00:20;;;;;;;25.77;16.92;;;;;;;25.16;63.70;100714.84;4988134;28;96810;-66
2023/06/30 03:02:47;;;;;;;26.42;17.05;;;;;;;25.01;64.31;100713.59;4987572;28;96830;-65
2023/06/30 03:05:13;;;;;;;27.17;17.63;;;;;;;24.80;65.74;100716.50;4987552;28;99050;-65
2023/06/30 03:07:40;;;;;;;26.70;18.40;;;;;;;24.81;65.99;100714.66;4987722;28;98763;-65
2023/06/30 03:10:07;;;;;;;26.88;15.70;;;;;;;24.94;65.90;100724.16;4990023;28;97120;-66
2023/06/30 03:12:34;;;;;;;28.75;17.02;;;;;;;24.96;65.61;100716.75;4990562;28;97185;-64
2023/06/30 03:15:01;;;;;;;24.08;15.95;;;;;;;25.04;65.71;100715.19;4991106;28;99019;-65
2023/06/30 03:17:27;;;;;;;28.05;16.63;;;;;;;25.02;64.82;100705.38;4980694;28;98924;-65
2023/06/30 03:19:53;;;;;;;24.40;16.58;;;;;;;25.22;64.83;100707.97;4985271;28;96809;-64
2023/06/30 03:22:19;;;;;;;26.35;17.20;;;;;;;25.25;64.64;100705.84;4985357;28;96979;-65
2023/06/30 03:24:46;;;;;;;28.55;17.33;;;;;;;25.16;63.77;100701.31;4993693;28;98965;-65
2023/06/30 03:27:12;;;;;;;23.38;15.70;;;;;;;24.82;65.55;100703.69;4990266;28;99251;-64
2023/06/30 03:29:40;;;;;;;23.90;15.63;;;;;;;24.85;66.54;100697.16;4987744;28;96820;-64
2023/06/30 03:32:07;;;;;;;26.95;17.55;;;;;;;24.99;65.92;100694.00;4987022;28;98409;-64
2023/06/30 03:34:33;;;;;;;24.65;17.27;;;;;;;24.94;66.12;100691.72;4980979;28;98952;-65
2023/06/30 03:36:59;;;;;;;25.05;16.70;;;;;;;24.90;66.30;100694.88;4988916;28;99099;-65
2023/06/30 03:39:26;;;;;;;26.30;16.42;;;;;;;24.84;66.38;100707.09;4993248;28;97016;-65
2023/06/30 03:41:52;;;;;;;31.35;17.40;;;;;;;24.90;66.70;100703.84;4987873;28;97177;-65
2023/06/30 03:44:19;;;;;;;25.70;16.27;;;;;;;25.10;65.73;100695.66;4988205;28;99163;-66
2023/06/30 03:46:46;;;;;;;25.25;16.52;;;;;;;24.86;66.64;100705.13;4995421;28;99259;-65
2023/06/30 03:49:13;;;;;;;26.13;15.98;;;;;;;24.78;66.76;100706.84;4986391;28;96761;-66
2023/06/30 03:51:40;;;;;;;25.35;16.42;;;;;;;25.01;65.85;100698.25;4997411;28;97698;-65
2023/06/30 03:54:07;;;;;;;23.25;15.55;;;;;;;25.31;64.29;100690.88;4989057;28;102089;-65
2023/06/30 03:56:33;;;;;;;25.48;16.70;;;;;;;25.12;64.51;100699.06;4994554;28;99114;-66
2023/06/30 03:58:59;;;;;;;24.58;16.92;;;;;;;25.04;64.85;100697.09;4987735;28;96838;-64
2023/06/30 04:01:26;;;;;;;26.50;17.58;;;;;;;25.12;63.93;100699.06;4989958;28;96860;-65
2023/06/30 04:03:54;;;;;;;24.52;16.23;;;;;;;25.19;64.13;100701.03;4990189;28;99584;-67
2023/06/30 04:06:20;;;;;;;23.48;15.93;;;;;;;25.25;63.35;100688.78;4998828;28;97558;-64
2023/06/30 04:08:46;;;;;;;23.80;15.95;;;;;;;25.35;63.24;100686.84;4984914;28;97837;-65
2023/06/30 04:11:13;;;;;;;25.27;16.45;;;;;;;25.32;63.22;100687.16;4985905;28;100506;-65
2023/06/30 04:13:39;;;;;;;29.15;16.83;;;;;;;25.36;62.72;100684.00;4991388;28;98874;-64
2023/06/30 04:16:05;;;;;;;27.50;17.20;;;;;;;25.42;62.78;100690.66;4983366;28;98854;-65
2023/06/30 04:18:32;;;;;;;24.33;16.83;;;;;;;25.32;63.10;100696.13;4987831;28;97132;-65
2023/06/30 04:21:00;;;;;;;32.38;17.35;;;;;;;25.36;63.80;100696.66;4988218;28;96805;-65
2023/06/30 04:23:26;;;;;;;29.33;17.08;;;;;;;25.59;62.95;100689.03;4983745;28;99278;-66
2023/06/30 04:25:53;;;;;;;27.35;16.60;;;;;;;25.54;63.15;100697.56;4991216;28;98976;-65
2023/06/30 04:28:19;;;;;;;29.40;16.88;;;;;;;25.48;64.06;100698.16;4991243;28;96806;-65
2023/06/30 04:30:45;;;;;;;25.58;16.20;;;;;;;25.79;62.85;100694.19;4992549;28;96870;-65
2023/06/30 04:33:11;;;;;;;26.67;17.77;;;;;;;25.76;62.70;100689.06;4993946;28;98803;-65
2023/06/30 04:35:38;;;;;;;27.38;15.73;;;;;;;25.85;61.76;100686.44;4992772;28;98878;-64
2023/06/30 04:38:05;;;;;;;23.50;16.00;;;;;;;25.76;61.32;100677.38;4997213;28;96924;-64
2023/06/30 04:40:32;;;;;;;23.20;16.10;;;;;;;26.04;60.77;100675.44;4994526;28;96883;-63
2023/06/30 04:43:00;;;;;;;25.10;16.58;;;;;;;26.10;59.92;100670.25;4996824;28;98088;-64
2023/06/30 04:45:26;;;;;;;26.00;16.58;;;;;;;26.03;59.78;100662.91;4995357;28;98831;-64
2023/06/30 04:47:52;;;;;;;18.10;13.68;;;;;;;26.47;58.86;100667.34;4987952;28;96774;-64
2023/06/30 04:50:19;;;;;;;23.85;15.85;;;;;;;26.40;58.62;100666.28;4993924;28;97301;-64
2023/06/30 04:52:45;;;;;;;20.10;14.25;;;;;;;26.41;57.58;100659.88;4994219;28;97691;-65
2023/06/30 04:55:13;;;;;;;22.02;15.65;;;;;;;26.66;57.13;100657.31;5001105;28;97506;-64
2023/06/30 04:57:39;;;;;;;21.15;14.40;;;;;;;26.52;57.15;100667.72;4988598;28;96893;-63
2023/06/30 05:00:08;;;;;;;20.83;13.52;;;;;;;26.52;57.15;100664.16;4999450;28;96787;-64
2023/06/30 05:02:34;;;;;;;21.58;14.45;;;;;;;26.52;56.78;100664.16;4987157;28;98933;-65
2023/06/30 05:05:00;;;;;;;17.80;12.80;;;;;;;26.87;56.14;100657.78;4993826;28;98783;-65
2023/06/30 05:07:27;;;;;;;19.15;12.68;;;;;;;26.64;56.42;100659.34;4996404;28;96841;-65
2023/06/30 05:09:53;;;;;;;17.70;12.20;;;;;;;26.83;55.78;100657.28;4993267;28;97132;-65
2023/06/30 05:12:21;;;;;;;19.50;13.75;;;;;;;27.26;54.91;100653.59;4998073;28;98968;-65
2023/06/30 05:14:47;;;;;;;20.27;13.10;;;;;;;27.44;53.36;100648.03;4992417;28;97458;-65
2023/06/30 05:17:13;;;;;;;17.63;13.02;;;;;;;27.40;53.59;100643.13;4991091;28;96852;-65
2023/06/30 05:19:39;;;;;;;16.17;12.10;;;;;;;26.94;54.05;100639.88;4992919;28;96970;-65
2023/06/30 05:22:06;;;;;;;18.35;13.20;;;;;;;26.80;54.51;100637.75;4989973;28;99173;-65
2023/06/30 05:24:33;;;;;;;17.15;12.57;;;;;;;26.98;54.31;100637.72;4992718;28;98782;-65
2023/06/30 05:26:59;;;;;;;17.35;12.07;;;;;;;27.54;53.36;100642.50;4991696;28;96899;-65
2023/06/30 05:29:30;;;;;;;21.98;15.10;;;;;;;27.94;52.64;100645.28;4991774;28;96921;-65
2023/06/30 05:31:57;;;;;;;30.60;21.55;;;;;;;27.95;52.69;100657.84;4986804;28;102223;-64
2023/06/30 05:34:23;;;;;;;29.45;16.70;;;;;;;28.03;52.43;100662.41;4988788;28;98962;-64
2023/06/30 05:36:49;;;;;;;26.58;16.02;;;;;;;28.08;52.29;100657.34;4986141;28;97146;-64
2023/06/30 05:39:16;;;;;;;27.10;17.02;;;;;;;27.59;53.02;100648.28;4991267;28;96889;-64
2023/06/30 05:41:42;;;;;;;24.42;15.77;;;;;;;28.25;51.70;100642.75;4990645;28;97969;-64
2023/06/30 05:44:09;;;;;;;25.92;16.23;;;;;;;28.27;51.37;100656.19;4993035;28;97709;-64
2023/06/30 05:46:37;;;;;;;24.73;16.38;;;;;;;28.66;49.56;100654.44;4989921;28;98055;-64
2023/06/30 05:49:05;;;;;;;23.85;16.48;;;;;;;28.85;48.90;100653.22;4988909;28;97710;-64
2023/06/30 05:51:32;;;;;;;29.20;18.17;;;;;;;28.48;49.68;100661.94;4999662;28;98649;-64
2023/06/30 05:53:58;;;;;;;23.48;15.57;;;;;;;28.47;49.30;100655.66;4992167;28;98843;-64
2023/06/30 05:56:24;;;;;;;25.45;14.95;;;;;;;28.29;49.86;100654.16;4991215;28;96801;-64
2023/06/30 05:58:51;;;;;;;24.10;16.20;;;;;;;28.82;47.89;100653.56;4991207;28;97339;-64
2023/06/30 06:01:17;;;;;;;27.15;15.18;;;;;;;28.58;48.02;100667.19;4992467;28;99082;-67
2023/06/30 06:03:45;;;;;;;23.95;15.25;;;;;;;28.46;48.87;100669.41;4993521;28;99005;-64
2023/06/30 06:06:11;;;;;;;28.67;15.48;;;;;;;28.55;48.79;100673.84;4993308;28;96711;-65
2023/06/30 06:08:39;;;;;;;21.35;14.70;;;;;;;28.51;49.26;100667.03;4995075;28;96899;-67
2023/06/30 06:11:05;;;;;;;23.70;15.02;;;;;;;28.58;48.91;100668.03;4991829;28;99540;-65
2023/06/30 06:13:33;;;;;;;21.75;14.80;;;;;;;28.41;48.84;100674.53;4996191;28;98635;-65
2023/06/30 06:15:59;;;;;;;23.50;14.55;;;;;;;28.01;49.96;100656.31;4994553;28;96658;-64
2023/06/30 06:18:25;;;;;;;23.50;15.05;;;;;;;28.23;49.11;100661.09;4989167;28;96915;-65
2023/06/30 06:20:53;;;;;;;26.58;16.27;;;;;;;28.34;48.87;100662.63;4992927;28;99072;-65
2023/06/30 06:23:19;;;;;;;25.98;16.73;;;;;;;28.59;48.85;100675.19;4992020;28;101452;-65
2023/06/30 06:25:46;;;;;;;27.70;17.73;;;;;;;28.58;48.88;100670.75;4992090;28;99366;-65
2023/06/30 06:28:12;;;;;;;23.75;16.25;;;;;;;28.45;48.79;100667.72;4987934;28;96925;-64
2023/06/30 06:30:38;;;;;;;24.98;15.27;;;;;;;28.34;49.20;100673.50;4987423;28;98991;-64
2023/06/30 06:33:05;;;;;;;28.23;17.80;;;;;;;28.04;49.47;100674.97;4988666;28;99132;-64
2023/06/30 06:35:31;;;;;;;26.65;16.63;;;;;;;28.48;48.83;100667.38;4990923;28;96773;-65
2023/06/30 06:37:59;;;;;;;27.38;17.08;;;;;;;28.30;49.25;100666.69;4989909;28;96807;-64
2023/06/30 06:40:25;;;;;;;27.08;16.38;;;;;;;28.60;48.66;100668.72;4991527;28;97922;-64
2023/06/30 06:42:52;;;;;;;27.23;16.30;;;;;;;28.80;48.39;100674.66;4995927;28;98901;-64
2023/06/30 06:45:19;;;;;;;28.73;16.67;;;;;;;28.74;48.37;100676.22;4992060;28;97116;-65
2023/06/30 06:48:20;;;;;;;27.23;16.60;;;;;;;28.61;47.57;100675.00;4994181;28;96986;-64
2023/06/30 06:50:46;;;;;;;23.42;15.73;;;;;;;29.00;47.18;100680.56;4991486;28;99325;-64
2023/06/30 06:53:19;;;;;;;24.83;15.05;;;;;;;29.24;44.91;100681.31;4991995;28;98847;-64
2023/06/30 06:55:47;;;;;;;23.67;13.95;;;;;;;29.08;44.67;100686.78;4996449;28;96874;-70
2023/06/30 06:58:13;;;;;;;23.83;13.77;;;;;;;28.49;45.45;100685.38;4997439;28;96983;-70
2023/06/30 07:00:39;;;;;;;21.05;12.50;;;;;;;28.43;45.49;100686.91;4992948;28;99227;-70
2023/06/30 07:03:06;;;;;;;20.15;13.27;;;;;;;28.39;44.74;100690.13;4993782;28;99094;-70
2023/06/30 07:05:33;;;;;;;19.63;13.15;;;;;;;28.68;44.70;100689.59;4987766;28;96907;-70
2023/06/30 07:07:59;;;;;;;23.02;12.85;;;;;;;28.49;45.02;100690.78;4997147;28;97690;-70
2023/06/30 07:10:27;;;;;;;19.08;12.57;;;;;;;28.48;44.42;100689.13;4987959;28;99013;-70
2023/06/30 07:12:53;;;;;;;20.45;12.77;;;;;;;28.08;45.97;100687.22;4991037;28;99050;-69
2023/06/30 07:15:20;;;;;;;17.58;12.43;;;;;;;27.86;46.93;100686.00;4986380;28;96862;-70
2023/06/30 07:17:46;;;;;;;17.65;12.63;;;;;;;27.70;47.59;100694.09;4994347;28;97170;-70
2023/06/30 07:20:13;;;;;;;18.05;12.52;;;;;;;27.56;48.05;100692.06;4992503;28;98987;-70
2023/06/30 07:22:39;;;;;;;21.08;12.90;;;;;;;27.85;47.52;100689.72;4991723;28;98369;-70
2023/06/30 07:25:07;;;;;;;17.23;12.10;;;;;;;27.95;47.15;100693.16;4994617;28;97021;-70
2023/06/30 07:27:36;;;;;;;20.10;13.00;;;;;;;28.10;46.59;100694.16;4998296;28;97602;-70
2023/06/30 07:30:03;;;;;;;22.20;13.98;;;;;;;28.35;46.13;100689.66;4996728;28;99564;-70
2023/06/30 07:32:31;;;;;;;20.00;13.25;;;;;;;28.52;45.54;100685.03;4997135;28;98933;-70
2023/06/30 07:34:57;;;;;;;19.58;13.35;;;;;;;28.29;46.40;100687.59;4987906;28;96799;-71
2023/06/30 07:37:23;;;;;;;21.55;13.25;;;;;;;28.28;46.63;100679.63;4992383;28;96948;-70
2023/06/30 07:39:50;;;;;;;24.10;13.75;;;;;;;28.16;47.58;100675.56;4988801;28;99124;-69
2023/06/30 07:42:16;;;;;;;20.05;13.38;;;;;;;28.13;47.90;100680.25;4991243;28;98926;-69
2023/06/30 07:44:44;;;;;;;20.92;13.90;;;;;;;28.24;47.75;100675.53;4989740;28;97123;-70
2023/06/30 07:47:10;;;;;;;24.45;14.73;;;;;;;28.38;47.56;100685.72;4991761;28;96820;-69
2023/06/30 07:49:37;;;;;;;26.30;18.23;;;;;;;28.29;47.60;100681.31;4983444;28;99101;-70
2023/06/30 07:52:03;;;;;;;24.92;14.95;;;;;;;28.03;48.20;100679.56;4983048;28;98837;-70
2023/06/30 07:54:30;;;;;;;23.80;13.80;;;;;;;28.07;48.14;100680.94;4993785;28;99603;-70
2023/06/30 07:56:56;;;;;;;22.27;13.45;;;;;;;28.01;48.33;100681.63;4992977;28;97080;-71
2023/06/30 07:59:22;;;;;;;20.15;13.43;;;;;;;27.97;48.68;100679.38;4987012;28;102432;-70
2023/06/30 08:01:50;;;;;;;22.80;13.05;;;;;;;27.69;48.69;100679.72;4991785;28;99026;-70
2023/06/30 08:04:18;;;;;;;22.02;13.05;;;;;;;27.61;48.86;100690.53;4974458;28;97028;-70
2023/06/30 08:06:44;;;;;;;25.33;13.70;;;;;;;27.61;49.10;100690.53;4986676;28;96860;-71
2023/06/30 08:09:11;;;;;;;22.35;14.18;;;;;;;28.05;48.55;100688.41;4990670;28;99107;-70
2023/06/30 08:11:37;;;;;;;19.65;14.07;;;;;;;28.17;48.48;100696.25;4989110;28;98783;-70
2023/06/30 08:14:04;;;;;;;20.95;13.82;;;;;;;28.31;48.12;100698.28;4992211;28;96770;-70
2023/06/30 08:16:30;;;;;;;20.45;13.40;;;;;;;28.21;48.70;100698.47;4991152;28;96774;-70
2023/06/30 08:18:58;;;;;;;23.27;14.68;;;;;;;27.96;49.30;100683.97;4985839;28;99117;-70
2023/06/30 08:21:25;;;;;;;21.40;14.50;;;;;;;28.24;49.00;100692.69;4983729;28;98989;-70
2023/06/30 08:23:52;;;;;;;22.58;14.48;;;;;;;28.29;49.12;100694.91;4988474;28;98141;-70
2023/06/30 08:26:18;;;;;;;23.45;14.27;;;;;;;28.53;48.65;100703.03;4987724;28;97210;-70
2023/06/30 08:28:44;;;;;;;21.45;14.90;;;;;;;28.80;48.15;100694.53;4989242;28;97673;-70
2023/06/30 08:31:11;;;;;;;20.65;14.00;;;;;;;28.80;47.88;100689.09;4984021;28;98634;-70
2023/06/30 08:33:37;;;;;;;20.60;13.73;;;;;;;28.93;46.79;100685.84;4986373;28;97548;-70
2023/06/30 08:36:05;;;;;;;19.13;14.05;;;;;;;29.11;46.42;100689.19;4984929;28;98030;-69
2023/06/30 08:38:32;;;;;;;20.92;13.70;;;;;;;29.10;45.98;100683.91;4986993;28;99046;-70
2023/06/30 08:40:59;;;;;;;19.40;13.65;;;;;;;28.79;46.23;100683.84;4992654;28;99003;-70
2023/06/30 08:43:28;;;;;;;19.45;14.00;;;;;;;28.17;47.75;100683.50;4990981;28;97703;-70
2023/06/30 08:45:54;;;;;;;20.27;13.65;;;;;;;28.56;47.14;100686.38;4990626;28;97192;-70
2023/06/30 08:48:21;;;;;;;20.35;14.60;;;;;;;28.83;46.37;100688.75;4994873;28;102166;-69
2023/06/30 08:50:48;;;;;;;20.70;13.90;;;;;;;29.41;45.24;100692.13;4994721;28;99045;-69
2023/06/30 08:53:18;;;;;;;20.15;14.00;;;;;;;29.05;45.78;100689.88;4993976;28;96754;-69
2023/06/30 08:55:46;;;;;;;20.00;13.88;;;;;;;29.20;45.67;100693.56;4990718;28;96935;-70
2023/06/30 08:58:13;;;;;;;21.40;13.73;;;;;;;29.58;45.25;100691.03;4992793;28;99114;-69
2023/06/30 09:00:39;;;;;;;22.23;14.68;;;;;;;29.67;44.86;100693.53;4986498;28;98803;-70
2023/06/30 09:03:08;;;;;;;21.15;14.50;;;;;;;29.60;44.89;100694.44;4985374;28;98601;-70
2023/06/30 09:05:36;;;;;;;19.88;14.40;;;;;;;29.61;44.96;100702.41;4990659;28;97057;-69
2023/06/30 09:08:05;;;;;;;22.77;14.80;;;;;;;29.50;44.82;100701.97;4989993;28;98951;-71
2023/06/30 09:10:37;;;;;;;22.50;14.70;;;;;;;29.41;45.64;100698.41;4984937;28;98217;-70
2023/06/30 09:13:04;;;;;;;24.15;14.98;;;;;;;29.14;46.18;100704.31;4989926;28;98001;-70
2023/06/30 09:15:31;;;;;;;23.80;15.63;;;;;;;29.11;46.44;100701.94;4987896;28;97342;-71
2023/06/30 09:17:58;;;;;;;24.08;16.48;;;;;;;29.09;46.48;100693.09;4987162;28;97910;-71
2023/06/30 09:20:24;;;;;;;28.45;16.80;;;;;;;29.25;46.13;100698.47;4986935;28;97614;-70
2023/06/30 09:22:51;;;;;;;25.58;16.92;;;;;;;29.14;46.27;100694.28;4994779;28;98249;-70
2023/06/30 09:25:41;;;;;;;25.70;16.20;;;;;;;28.80;47.29;100688.25;4997378;28;96864;-71
2023/06/30 09:28:10;;;;;;;26.10;16.15;;;;;;;28.88;47.79;100688.25;4991095;28;99207;-70
2023/06/30 09:30:38;;;;;;;27.20;17.00;;;;;;;28.65;48.99;100692.66;4991371;28;98788;-72
2023/06/30 09:33:05;;;;;;;27.80;16.48;;;;;;;28.68;48.60;100689.59;4989775;28;97186;-70
2023/06/30 09:35:37;;;;;;;23.85;15.90;;;;;;;29.15;47.53;100684.22;4992364;28;97115;-69
2023/06/30 09:38:03;;;;;;;25.58;17.63;;;;;;;29.19;47.10;100678.28;4991452;28;100134;-70
2023/06/30 09:40:30;;;;;;;34.67;18.48;;;;;;;28.74;48.37;100678.94;4992288;28;99032;-69
2023/06/30 09:42:57;;;;;;;30.17;17.77;;;;;;;28.35;49.45;100684.22;4990767;28;97652;-70
2023/06/30 09:45:24;;;;;;;29.02;18.60;;;;;;;27.94;50.86;100679.75;4990162;28;96854;-70
2023/06/30 09:47:51;;;;;;;28.65;18.73;;;;;;;28.04;51.04;100683.97;4987240;28;99014;-69
2023/06/30 09:50:22;;;;;;;28.63;19.55;;;;;;;27.74;52.35;100684.63;4988110;28;99075;-70
2023/06/30 09:52:49;;;;;;;27.38;17.58;;;;;;;27.70;53.03;100677.81;4990038;28;96766;-70
2023/06/30 09:55:15;;;;;;;27.33;18.70;;;;;;;27.80;52.81;100681.25;4989528;28;97296;-70
2023/06/30 09:57:43;;;;;;;31.73;20.63;;;;;;;27.76;53.10;100685.31;4990518;28;97820;-71
2023/06/30 10:00:16;;;;;;;30.55;19.80;;;;;;;27.48;55.16;100695.56;4989004;28;98918;-70
2023/06/30 10:02:43;;;;;;;32.58;20.42;;;;;;;27.43;56.93;100697.91;4987445;28;97177;-69
2023/06/30 10:05:09;;;;;;;33.03;21.13;;;;;;;27.55;57.74;100702.06;4995460;28;96818;-70
2023/06/30 10:07:37;;;;;;;35.95;21.38;;;;;;;27.80;57.45;100697.53;4993393;28;99027;-69
2023/06/30 10:10:04;;;;;;;36.63;22.92;;;;;;;28.20;56.42;100704.06;4987619;28;98836;-70
2023/06/30 10:12:34;;;;;;;31.17;21.95;;;;;;;28.06;55.97;100695.53;4986667;28;98091;-71
2023/06/30 10:15:02;;;;;;;28.75;21.40;;;;;;;27.92;56.75;100692.63;4987107;28;96864;-70
2023/06/30 10:17:30;;;;;;;35.80;23.83;;;;;;;28.20;56.10;100701.34;4988997;28;99113;-70
2023/06/30 10:19:57;;;;;;;36.28;24.02;;;;;;;28.19;56.12;100699.66;4994463;28;98726;-69
2023/06/30 10:22:24;;;;;;;36.05;22.35;;;;;;;28.18;56.54;100700.66;4988478;28;96739;-69
2023/06/30 10:24:50;;;;;;;35.55;21.60;;;;;;;28.03;55.88;100698.56;4992490;28;96819;-70
2023/06/30 10:27:19;;;;;;;32.88;22.63;;;;;;;27.99;55.03;100699.09;4990861;28;98998;-70
2023/06/30 10:29:46;;;;;;;35.50;23.05;;;;;;;28.26;54.12;100704.25;4993841;28;98815;-70
2023/06/30 10:32:12;;;;;;;33.55;21.80;;;;;;;28.06;54.60;100698.25;4991086;28;97156;-70
2023/06/30 10:34:42;;;;;;;30.83;21.15;;;;;;;27.72;55.05;100702.94;4988086;28;96797;-70
2023/06/30 10:37:10;;;;;;;35.33;22.25;;;;;;;27.23;56.20;100697.34;4989365;28;98940;-69
2023/06/30 10:39:36;;;;;;;32.08;20.27;;;;;;;27.41;55.61;100699.09;4988392;28;99111;-69
2023/06/30 10:42:05;;;;;;;30.25;20.13;;;;;;;27.43;55.69;100694.34;4990445;28;96855;-69
2023/06/30 10:44:38;;;;;;;36.28;19.70;;;;;;;26.98;56.58;100703.63;4990461;28;98111;-70
2023/06/30 10:47:05;;;;;;;31.70;19.30;;;;;;;27.14;56.55;100709.16;4990475;28;97780;-70
2023/06/30 10:49:34;;;;;;;31.38;20.10;;;;;;;26.87;58.12;100704.72;4990135;28;98854;-70
2023/06/30 10:52:06;;;;;;;30.20;18.98;;;;;;;26.98;57.13;100699.03;4988904;28;96847;-70
2023/06/30 10:54:41;;;;;;;29.75;19.25;;;;;;;26.86;57.08;100702.16;4986458;28;96953;-69
2023/06/30 10:57:10;;;;;;;33.00;20.58;;;;;;;26.86;57.17;100694.03;4987990;28;99072;-70
2023/06/30 10:59:38;;;;;;;29.77;20.35;;;;;;;26.80;58.22;100691.97;4989722;28;98902;-70
2023/06/30 11:02:23;;;;;;;29.33;19.60;;;;;;;26.64;56.42;100694.59;4992269;28;97255;-70
2023/06/30 11:04:52;;;;;;;32.20;20.08;;;;;;;26.88;56.24;100695.59;4992436;28;96763;-70
2023/06/30 11:07:24;;;;;;;29.52;20.20;;;;;;;26.81;56.07;100696.38;4989050;28;99206;-69
2023/06/30 11:10:08;;;;;;;33.55;20.90;;;;;;;26.34;57.38;100698.56;4989806;28;101297;-69